createdAt,value
2022-12-01T00:03:44.267Z,77.36
2022-12-01T00:09:09.600Z,77.50
2022-12-01T00:14:12.903Z,77.70
2022-12-01T00:19:16.242Z,77.82
2022-12-01T00:24:19.423Z,77.97
2022-12-01T00:29:22.548Z,78.10
2022-12-01T00:34:26.564Z,77.97
2022-12-01T00:39:29.773Z,77.89
2022-12-01T00:44:32.872Z,77.81
2022-12-01T00:49:35.978Z,77.93
2022-12-01T00:54:39.800Z,77.90
2022-12-01T00:59:43.013Z,77.94
2022-12-01T01:04:46.225Z,77.96
2022-12-01T01:09:49.644Z,77.74
2022-12-01T01:14:52.984Z,77.81
2022-12-01T01:19:56.364Z,77.96
2022-12-01T01:24:59.496Z,78.13
2022-12-01T01:30:02.668Z,78.06
2022-12-01T01:35:06.708Z,77.78
2022-12-01T01:40:11.045Z,77.82
2022-12-01T01:45:23.592Z,77.85
2022-12-01T01:50:29.125Z,77.86
2022-12-01T01:55:35.410Z,77.81
2022-12-01T02:00:42.375Z,77.59
2022-12-01T02:05:46.634Z,77.53
2022-12-01T02:11:15.347Z,77.52
2022-12-01T02:17:41.829Z,77.52
2022-12-01T02:23:07.148Z,77.42
2022-12-01T02:29:07.686Z,77.49
2022-12-01T02:34:21.972Z,77.68
2022-12-01T02:40:03.763Z,77.60
2022-12-01T02:45:17.741Z,77.61
2022-12-01T02:50:24.332Z,77.61
2022-12-01T02:55:27.516Z,77.71
2022-12-01T03:00:31.475Z,77.60
2022-12-01T03:06:06.301Z,77.59
2022-12-01T03:11:27.266Z,77.34
2022-12-01T03:16:52.440Z,77.40
2022-12-01T03:22:10.796Z,77.59
2022-12-01T03:27:21.919Z,77.67
2022-12-01T03:32:37.090Z,77.94
2022-12-01T03:37:47.262Z,78.31
2022-12-01T03:42:59.690Z,78.79
2022-12-01T03:48:03.448Z,78.89
2022-12-01T03:53:07.032Z,79.12
2022-12-01T03:58:30.909Z,79.18
2022-12-01T04:03:34.947Z,79.41
2022-12-01T04:08:39.181Z,79.30
2022-12-01T04:13:42.283Z,79.45
2022-12-01T04:18:45.503Z,79.61
2022-12-01T04:24:00.887Z,79.94
2022-12-01T04:29:09.551Z,80.28
2022-12-01T04:34:12.626Z,80.65
2022-12-01T04:39:15.880Z,80.95
2022-12-01T04:44:19.261Z,81.05
2022-12-01T04:49:22.806Z,81.15
2022-12-01T04:54:26.192Z,81.27
2022-12-01T04:59:29.294Z,81.68
2022-12-01T05:04:34.261Z,81.80
2022-12-01T05:09:37.649Z,81.73
2022-12-01T05:14:40.662Z,81.82
2022-12-01T05:20:02.418Z,81.85
2022-12-01T05:25:08.480Z,81.99
2022-12-01T05:30:12.707Z,82.27
2022-12-01T05:35:16.014Z,82.36
2022-12-01T05:40:19.343Z,82.56
2022-12-01T05:45:22.956Z,82.67
2022-12-01T05:50:29.489Z,82.70
2022-12-01T05:55:35.814Z,82.72
2022-12-01T06:00:45.423Z,82.68
2022-12-01T06:05:49.190Z,82.56
2022-12-01T06:10:52.300Z,82.46
2022-12-01T06:16:05.535Z,82.36
2022-12-01T06:21:08.647Z,82.43
2022-12-01T06:26:11.753Z,82.64
2022-12-01T06:31:14.770Z,82.78
2022-12-01T06:36:17.971Z,82.89
2022-12-01T06:41:21.078Z,83.05
2022-12-01T06:46:24.476Z,82.93
2022-12-01T06:51:28.615Z,82.74
2022-12-01T06:56:31.727Z,82.64
2022-12-01T07:01:35.237Z,82.57
2022-12-01T07:06:38.552Z,82.68
2022-12-01T07:11:41.661Z,82.75
2022-12-01T07:16:44.917Z,82.97
2022-12-01T07:21:48.087Z,83.28
2022-12-01T07:26:51.287Z,83.13
2022-12-01T07:31:54.388Z,83.20
2022-12-01T07:36:57.494Z,83.38
2022-12-01T07:42:00.599Z,83.11
2022-12-01T07:47:04.225Z,82.99
2022-12-01T07:52:07.437Z,82.93
2022-12-01T07:57:14.457Z,83.29
2022-12-01T08:02:17.702Z,83.37
2022-12-01T08:07:21.086Z,83.28
2022-12-01T08:12:24.458Z,83.43
2022-12-01T08:17:27.568Z,83.46
2022-12-01T08:22:30.815Z,83.54
2022-12-01T08:27:35.468Z,83.63
2022-12-01T08:32:38.572Z,83.40
2022-12-01T08:37:41.946Z,83.29
2022-12-01T08:42:47.139Z,83.00
2022-12-01T08:47:50.605Z,82.93
2022-12-01T08:52:53.917Z,82.93
2022-12-01T08:57:57.024Z,83.13
2022-12-01T09:03:01.304Z,83.15
2022-12-01T09:08:23.920Z,83.28
2022-12-01T09:13:28.788Z,83.25
2022-12-01T09:18:32.600Z,83.04
2022-12-01T09:23:35.809Z,82.77
2022-12-01T09:28:39.110Z,82.74
2022-12-01T09:33:43.037Z,82.74
2022-12-01T09:38:46.345Z,82.71
2022-12-01T09:43:56.939Z,82.82
2022-12-01T09:49:04.190Z,82.77
2022-12-01T09:54:11.109Z,82.54
2022-12-01T09:59:22.686Z,82.34
2022-12-01T10:04:36.686Z,82.14
2022-12-01T10:09:54.748Z,81.73
2022-12-01T10:15:13.425Z,81.34
2022-12-01T10:20:16.528Z,81.09
2022-12-01T10:25:51.684Z,80.94
2022-12-01T10:31:05.078Z,81.08
2022-12-01T10:36:10.706Z,80.94
2022-12-01T10:41:18.658Z,80.64
2022-12-01T10:47:06.577Z,80.86
2022-12-01T10:52:41.939Z,80.76
2022-12-01T10:57:46.236Z,80.86
2022-12-01T11:02:49.818Z,80.60
2022-12-01T11:07:54.048Z,80.33
2022-12-01T11:13:21.036Z,80.42
2022-12-01T11:18:50.453Z,80.68
2022-12-01T11:23:56.287Z,81.03
2022-12-01T11:29:22.237Z,81.07
2022-12-01T11:34:34.616Z,81.24
2022-12-01T11:39:44.130Z,81.39
2022-12-01T11:45:13.635Z,81.28
2022-12-01T11:50:28.576Z,80.97
2022-12-01T11:55:32.856Z,80.81
2022-12-01T12:00:58.209Z,80.67
2022-12-01T12:06:39.589Z,80.62
2022-12-01T12:12:01.933Z,80.74
2022-12-01T12:18:02.204Z,80.72
2022-12-01T12:23:20.949Z,81.08
2022-12-01T12:28:23.993Z,81.22
2022-12-01T12:33:33.717Z,81.26
2022-12-01T12:38:55.460Z,80.98
2022-12-01T12:44:37.616Z,80.72
2022-12-01T12:49:57.339Z,80.68
2022-12-01T12:55:20.561Z,80.58
2022-12-01T13:00:29.925Z,80.83
2022-12-01T13:05:40.609Z,80.96
2022-12-01T13:11:03.357Z,81.03
2022-12-01T13:16:15.876Z,81.33
2022-12-01T13:21:23.663Z,81.44
2022-12-01T13:26:27.327Z,81.50
2022-12-01T13:31:51.016Z,81.67
2022-12-01T13:36:56.737Z,81.75
2022-12-01T13:42:25.939Z,81.97
2022-12-01T13:47:50.604Z,82.32
2022-12-01T13:53:31.216Z,82.57
2022-12-01T13:58:34.305Z,82.86
2022-12-01T14:03:41.460Z,83.17
2022-12-01T14:09:03.175Z,83.05
2022-12-01T14:14:09.214Z,82.89
2022-12-01T14:19:47.419Z,82.75
2022-12-01T14:24:53.425Z,82.69
2022-12-01T14:29:56.629Z,82.68
2022-12-01T14:35:05.320Z,82.86
2022-12-01T14:40:25.165Z,82.89
2022-12-01T14:45:55.507Z,83.00
2022-12-01T14:51:33.238Z,82.97
2022-12-01T14:56:37.876Z,82.71
2022-12-01T15:01:41.655Z,82.36
2022-12-01T15:06:46.189Z,82.08
2022-12-01T15:12:02.467Z,81.89
2022-12-01T15:17:09.290Z,81.82
2022-12-01T15:22:16.889Z,81.95
2022-12-01T15:27:31.121Z,82.14
2022-12-01T15:32:43.254Z,82.10
2022-12-01T15:37:47.364Z,82.15
2022-12-01T15:43:38.229Z,82.18
2022-12-01T15:48:42.417Z,81.64
2022-12-01T15:53:51.415Z,81.53
2022-12-01T15:59:20.687Z,81.29
2022-12-01T16:04:35.563Z,81.13
2022-12-01T16:09:58.729Z,81.28
2022-12-01T16:15:03.188Z,81.39
2022-12-01T16:20:23.288Z,81.46
2022-12-01T16:25:39.133Z,81.74
2022-12-01T16:30:42.377Z,81.70
2022-12-01T16:35:46.435Z,81.57
2022-12-01T16:40:57.212Z,81.24
2022-12-01T16:46:06.721Z,81.07
2022-12-01T16:51:14.605Z,81.00
2022-12-01T16:56:17.796Z,80.74
2022-12-01T17:01:21.065Z,80.43
2022-12-01T17:06:24.423Z,80.20
2022-12-01T17:11:27.634Z,80.04
2022-12-01T17:16:30.887Z,80.08
2022-12-01T17:21:34.150Z,79.94
2022-12-01T17:26:37.352Z,80.07
2022-12-01T17:31:40.618Z,80.07
2022-12-01T17:36:44.206Z,79.96
2022-12-01T17:41:47.391Z,79.78
2022-12-01T17:46:50.649Z,79.55
2022-12-01T17:51:53.974Z,79.29
2022-12-01T17:56:57.533Z,79.33
2022-12-01T18:02:00.900Z,78.98
2022-12-01T18:07:04.459Z,78.51
2022-12-01T18:12:07.922Z,78.46
2022-12-01T18:17:11.502Z,78.35
2022-12-01T18:22:14.801Z,78.50
2022-12-01T18:27:17.919Z,78.14
2022-12-01T18:32:21.321Z,78.43
2022-12-01T18:37:24.647Z,78.18
2022-12-01T18:42:27.775Z,78.04
2022-12-01T18:47:30.977Z,78.28
2022-12-01T18:52:37.779Z,78.07
2022-12-01T18:57:40.969Z,77.82
2022-12-01T19:02:44.128Z,77.89
2022-12-01T19:07:48.884Z,77.43
2022-12-01T19:12:52.215Z,77.13
2022-12-01T19:17:55.733Z,77.07
2022-12-01T19:22:59.798Z,77.24
2022-12-01T19:28:03.576Z,76.95
2022-12-01T19:33:06.787Z,76.54
2022-12-01T19:38:09.995Z,75.93
2022-12-01T19:43:13.305Z,75.82
2022-12-01T19:48:16.522Z,75.89
2022-12-01T19:53:19.724Z,76.11
2022-12-01T19:58:25.181Z,75.97
2022-12-01T20:03:28.396Z,75.89
2022-12-01T20:08:35.485Z,75.79
2022-12-01T20:13:42.334Z,75.46
2022-12-01T20:18:46.833Z,75.61
2022-12-01T20:23:59.979Z,75.96
2022-12-01T20:29:15.161Z,76.03
2022-12-01T20:34:27.151Z,76.15
2022-12-01T20:39:35.608Z,76.24
2022-12-01T20:44:40.387Z,76.18
2022-12-01T20:49:43.861Z,76.19
2022-12-01T20:54:47.113Z,76.21
2022-12-01T20:59:50.482Z,76.10
2022-12-01T21:04:57.754Z,75.86
2022-12-01T21:10:03.360Z,75.58
2022-12-01T21:15:29.605Z,75.43
2022-12-01T21:20:40.764Z,75.24
2022-12-01T21:25:44.926Z,74.78
2022-12-01T21:30:49.735Z,74.33
2022-12-01T21:35:53.090Z,74.81
2022-12-01T21:40:56.214Z,74.92
2022-12-01T21:46:14.015Z,75.29
2022-12-01T21:51:25.106Z,75.04
2022-12-01T21:56:31.953Z,75.13
2022-12-01T22:01:35.780Z,75.09
2022-12-01T22:06:44.536Z,75.17
2022-12-01T22:12:10.254Z,75.64
2022-12-01T22:17:20.605Z,75.36
2022-12-01T22:22:27.578Z,75.02
2022-12-01T22:27:38.718Z,75.04
2022-12-01T22:32:48.267Z,75.32
2022-12-01T22:38:06.722Z,75.35
2022-12-01T22:43:15.773Z,75.14
2022-12-01T22:48:29.081Z,75.17
2022-12-01T22:53:32.248Z,75.12
2022-12-01T22:58:41.244Z,75.04
2022-12-01T23:03:44.367Z,75.50
2022-12-01T23:08:47.578Z,75.41
2022-12-01T23:13:50.789Z,75.37
2022-12-01T23:18:55.435Z,75.47
2022-12-01T23:23:58.543Z,75.43
2022-12-01T23:29:01.841Z,75.35
2022-12-01T23:34:15.532Z,75.01
2022-12-01T23:39:29.182Z,74.70
2022-12-01T23:44:45.783Z,74.33
2022-12-01T23:50:07.017Z,74.11
2022-12-01T23:55:29.978Z,74.21
